createdAt,value
2022-10-28T00:00:31.910Z,11.75
2022-10-28T00:03:01.893Z,11.85
2022-10-28T00:05:29.465Z,11.89
2022-10-28T00:07:56.711Z,11.84
2022-10-28T00:10:23.303Z,11.82
2022-10-28T00:12:49.928Z,11.92
2022-10-28T00:15:16.641Z,12.04
2022-10-28T00:17:43.446Z,12.02
2022-10-28T00:20:10.832Z,11.93
2022-10-28T00:22:38.024Z,12.05
2022-10-28T00:25:04.914Z,12.00
2022-10-28T00:27:33.271Z,12.08
2022-10-28T00:30:00.314Z,11.99
2022-10-28T00:32:30.852Z,12.08
2022-10-28T00:35:03.991Z,12.06
2022-10-28T00:37:30.702Z,12.02
2022-10-28T00:39:57.529Z,12.00
2022-10-28T00:42:24.150Z,11.98
2022-10-28T00:44:59.186Z,12.06
2022-10-28T00:47:33.545Z,12.13
2022-10-28T00:50:25.121Z,12.09
2022-10-28T00:52:55.324Z,12.08
2022-10-28T00:55:23.385Z,11.98
2022-10-28T00:57:50.813Z,11.86
2022-10-28T01:00:17.655Z,11.84
2022-10-28T01:02:49.151Z,11.86
2022-10-28T01:05:19.547Z,11.97
2022-10-28T01:07:46.402Z,11.82
2022-10-28T01:10:13.966Z,11.79
2022-10-28T01:12:47.829Z,11.70
2022-10-28T01:15:45.619Z,11.63
2022-10-28T01:18:38.126Z,11.57
2022-10-28T01:21:41.728Z,11.52
2022-10-28T01:24:48.215Z,11.52
2022-10-28T01:27:36.742Z,11.43
2022-10-28T01:30:22.168Z,11.53
2022-10-28T01:33:01.030Z,11.50
2022-10-28T01:35:39.509Z,11.48
2022-10-28T01:38:19.934Z,11.62
2022-10-28T01:40:55.831Z,11.51
2022-10-28T01:43:26.967Z,11.48
2022-10-28T01:46:05.913Z,11.57
2022-10-28T01:48:48.809Z,11.43
2022-10-28T01:51:42.264Z,11.43
2022-10-28T01:54:09.404Z,11.41
2022-10-28T01:56:40.268Z,11.43
2022-10-28T01:59:13.592Z,11.44
2022-10-28T02:01:40.398Z,11.33
2022-10-28T02:04:07.220Z,11.23
2022-10-28T02:06:34.891Z,11.20
2022-10-28T02:09:32.940Z,11.20
2022-10-28T02:12:22.265Z,11.17
2022-10-28T02:15:19.907Z,11.12
2022-10-28T02:18:08.037Z,11.08
2022-10-28T02:20:35.525Z,11.00
2022-10-28T02:23:15.295Z,10.97
2022-10-28T02:25:46.671Z,10.99
2022-10-28T02:28:18.145Z,10.95
2022-10-28T02:31:00.237Z,10.95
2022-10-28T02:33:31.379Z,10.91
2022-10-28T02:36:01.996Z,10.91
2022-10-28T02:38:33.358Z,10.89
2022-10-28T02:41:03.433Z,10.84
2022-10-28T02:43:32.958Z,10.86
2022-10-28T02:46:02.458Z,10.81
2022-10-28T02:48:33.759Z,10.78
2022-10-28T02:51:09.601Z,10.71
2022-10-28T02:53:50.292Z,10.67
2022-10-28T02:56:17.539Z,10.64
2022-10-28T02:58:45.113Z,10.62
2022-10-28T03:01:11.815Z,10.58
2022-10-28T03:03:38.490Z,10.56
2022-10-28T03:06:05.200Z,10.52
2022-10-28T03:08:31.815Z,10.50
2022-10-28T03:10:58.371Z,10.51
2022-10-28T03:13:24.989Z,10.47
2022-10-28T03:15:51.576Z,10.45
2022-10-28T03:18:18.211Z,10.45
2022-10-28T03:20:47.773Z,10.45
2022-10-28T03:23:14.402Z,10.41
2022-10-28T03:25:41.039Z,10.39
2022-10-28T03:28:07.687Z,10.36
2022-10-28T03:30:34.311Z,10.32
2022-10-28T03:33:00.936Z,10.32
2022-10-28T03:35:27.603Z,10.27
2022-10-28T03:37:54.231Z,10.22
2022-10-28T03:40:20.842Z,10.23
2022-10-28T03:42:47.462Z,10.19
2022-10-28T03:45:14.107Z,10.19
2022-10-28T03:47:40.927Z,10.19
2022-10-28T03:50:07.929Z,10.19
2022-10-28T03:52:34.530Z,10.19
2022-10-28T03:55:01.154Z,10.20
2022-10-28T03:57:31.507Z,10.17
2022-10-28T03:59:58.163Z,10.18
2022-10-28T04:02:24.867Z,10.14
2022-10-28T04:04:51.585Z,10.14
2022-10-28T04:07:18.364Z,10.12
2022-10-28T04:09:44.969Z,10.13
2022-10-28T04:12:11.689Z,10.13
2022-10-28T04:14:38.257Z,10.10
2022-10-28T04:17:04.862Z,10.11
2022-10-28T04:19:31.434Z,10.10
2022-10-28T04:21:58.045Z,10.12
2022-10-28T04:24:24.658Z,10.12
2022-10-28T04:26:51.245Z,10.12
2022-10-28T04:29:18.089Z,10.12
2022-10-28T04:31:46.469Z,10.12
2022-10-28T04:34:15.387Z,10.15
2022-10-28T04:36:42.044Z,10.06
2022-10-28T04:39:09.718Z,10.06
2022-10-28T04:41:36.293Z,10.04
2022-10-28T04:44:02.893Z,9.98
2022-10-28T04:46:29.502Z,9.96
2022-10-28T04:48:56.097Z,9.96
2022-10-28T04:51:22.731Z,9.94
2022-10-28T04:53:49.302Z,9.91
2022-10-28T04:56:16.001Z,9.89
2022-10-28T04:58:42.684Z,9.87
2022-10-28T05:01:10.449Z,9.91
2022-10-28T05:03:37.427Z,9.86
2022-10-28T05:06:07.644Z,9.83
2022-10-28T05:08:34.553Z,9.83
2022-10-28T05:11:01.258Z,9.83
2022-10-28T05:13:27.975Z,9.84
2022-10-28T05:15:54.763Z,9.85
2022-10-28T05:18:21.483Z,9.83
2022-10-28T05:20:52.826Z,9.86
2022-10-28T05:23:19.591Z,9.87
2022-10-28T05:25:46.258Z,9.95
2022-10-28T05:28:12.938Z,9.97
2022-10-28T05:30:39.635Z,9.98
2022-10-28T05:33:06.452Z,9.98
2022-10-28T05:35:35.967Z,10.01
2022-10-28T05:38:03.079Z,10.01
2022-10-28T05:40:29.984Z,10.04
2022-10-28T05:42:56.901Z,10.10
2022-10-28T05:45:23.829Z,10.10
2022-10-28T05:47:50.781Z,10.10
2022-10-28T05:50:18.729Z,10.11
2022-10-28T05:52:50.241Z,10.14
2022-10-28T05:55:21.363Z,10.16
2022-10-28T05:57:49.631Z,10.18
2022-10-28T06:00:18.172Z,10.20
2022-10-28T06:02:45.085Z,10.26
2022-10-28T06:05:12.586Z,10.27
2022-10-28T06:07:40.192Z,10.40
2022-10-28T06:10:08.090Z,10.59
2022-10-28T06:15:06.294Z,10.42
2022-10-28T06:17:33.091Z,10.47
2022-10-28T06:19:59.800Z,10.56
2022-10-28T06:22:26.517Z,10.90
2022-10-28T06:24:53.245Z,10.81
2022-10-28T06:27:19.985Z,10.77
2022-10-28T06:29:46.674Z,10.84
2022-10-28T06:32:13.468Z,10.89
2022-10-28T06:34:40.204Z,11.12
2022-10-28T06:37:08.917Z,11.21
2022-10-28T06:39:37.007Z,11.42
2022-10-28T06:42:03.948Z,11.22
2022-10-28T06:44:30.727Z,11.26
2022-10-28T06:46:59.213Z,11.21
2022-10-28T06:49:25.998Z,11.21
2022-10-28T06:51:52.798Z,11.23
2022-10-28T06:54:19.506Z,11.23
2022-10-28T06:56:47.709Z,11.27
2022-10-28T06:59:14.411Z,11.43
2022-10-28T07:01:41.452Z,11.43
2022-10-28T07:04:11.262Z,11.45
2022-10-28T07:06:38.048Z,11.48
2022-10-28T07:09:04.789Z,11.58
2022-10-28T07:11:31.574Z,11.63
2022-10-28T07:13:58.287Z,11.97
2022-10-28T07:16:25.135Z,11.86
2022-10-28T07:18:51.813Z,11.87
2022-10-28T07:21:18.823Z,11.89
2022-10-28T07:23:46.951Z,12.02
2022-10-28T07:26:14.053Z,12.00
2022-10-28T07:28:42.976Z,12.05
2022-10-28T07:33:36.411Z,12.15
2022-10-28T07:36:04.892Z,12.19
2022-10-28T07:38:31.705Z,12.27
2022-10-28T07:40:58.434Z,12.40
2022-10-28T07:43:25.319Z,12.53
2022-10-28T07:45:58.336Z,12.72
2022-10-28T07:48:28.550Z,12.85
2022-10-28T07:50:55.283Z,12.95
2022-10-28T07:53:24.827Z,12.98
2022-10-28T07:55:59.184Z,13.06
2022-10-28T07:58:26.117Z,13.01
2022-10-28T08:00:53.378Z,13.02
2022-10-28T08:03:20.402Z,13.04
2022-10-28T08:05:47.391Z,13.00
2022-10-28T08:08:14.104Z,13.00
2022-10-28T08:10:40.814Z,13.02
2022-10-28T08:13:07.544Z,12.98
2022-10-28T08:15:34.322Z,12.96
2022-10-28T08:18:01.096Z,12.93
2022-10-28T08:20:27.938Z,12.92
2022-10-28T08:22:54.926Z,12.93
2022-10-28T08:25:21.783Z,13.05
2022-10-28T08:27:48.594Z,13.07
2022-10-28T08:30:15.813Z,13.03
2022-10-28T08:32:42.610Z,13.10
2022-10-28T08:35:09.494Z,13.26
2022-10-28T08:37:36.341Z,13.18
2022-10-28T08:40:03.312Z,13.23
2022-10-28T08:42:37.854Z,13.23
2022-10-28T08:45:22.934Z,13.29
2022-10-28T08:48:11.383Z,13.41
2022-10-28T08:50:49.468Z,13.54
2022-10-28T08:53:41.504Z,13.68
2022-10-28T08:56:14.697Z,13.90
2022-10-28T08:58:44.022Z,14.16
2022-10-28T09:01:18.726Z,14.28
2022-10-28T09:03:46.929Z,14.45
2022-10-28T09:06:13.648Z,14.55
2022-10-28T09:08:48.484Z,14.74
2022-10-28T09:11:43.292Z,14.92
2022-10-28T09:14:28.865Z,15.02
2022-10-28T09:17:12.503Z,15.08
2022-10-28T09:19:48.987Z,15.15
2022-10-28T09:22:34.025Z,15.40
2022-10-28T09:25:03.331Z,15.60
2022-10-28T09:27:58.345Z,15.81
2022-10-28T09:30:52.862Z,15.80
2022-10-28T09:33:35.003Z,15.86
2022-10-28T09:36:03.756Z,15.99
2022-10-28T09:38:34.487Z,16.15
2022-10-28T09:41:20.701Z,16.47
2022-10-28T09:44:09.693Z,16.60
2022-10-28T09:46:37.924Z,16.88
2022-10-28T09:49:21.336Z,17.05
2022-10-28T09:51:54.460Z,17.24
2022-10-28T09:54:38.639Z,17.32
2022-10-28T09:57:05.446Z,17.19
2022-10-28T09:59:32.359Z,17.18
2022-10-28T10:01:59.331Z,17.12
2022-10-28T10:04:27.499Z,17.03
2022-10-28T10:07:11.413Z,17.19
2022-10-28T10:09:39.225Z,17.40
2022-10-28T10:12:10.337Z,17.61
2022-10-28T10:14:41.048Z,17.73
2022-10-28T10:17:23.158Z,17.85
2022-10-28T10:20:06.144Z,17.94
2022-10-28T10:22:35.678Z,18.12
2022-10-28T10:25:04.169Z,18.27
2022-10-28T10:27:31.709Z,18.43
2022-10-28T10:29:58.900Z,18.47
2022-10-28T10:32:32.377Z,18.60
2022-10-28T10:35:28.400Z,18.65
2022-10-28T10:37:57.366Z,18.77
2022-10-28T10:40:33.922Z,18.57
2022-10-28T10:43:22.556Z,18.48
2022-10-28T10:45:58.958Z,18.51
2022-10-28T10:48:25.937Z,18.61
2022-10-28T10:50:52.891Z,18.62
2022-10-28T10:53:25.779Z,18.71
2022-10-28T10:56:08.456Z,18.70
2022-10-28T10:58:40.436Z,18.90
2022-10-28T11:01:08.168Z,19.16
2022-10-28T11:03:59.479Z,19.38
2022-10-28T11:06:28.147Z,19.32
2022-10-28T11:08:57.956Z,19.30
2022-10-28T11:11:35.192Z,19.23
2022-10-28T11:14:24.510Z,19.13
2022-10-28T11:16:51.121Z,19.13
2022-10-28T11:19:24.825Z,19.32
2022-10-28T11:22:06.737Z,19.28
2022-10-28T11:25:03.553Z,19.41
2022-10-28T11:28:10.841Z,19.50
2022-10-28T11:30:48.420Z,19.57
2022-10-28T11:33:34.190Z,19.77
2022-10-28T11:36:24.388Z,19.83
2022-10-28T11:39:03.883Z,20.03
2022-10-28T11:41:52.492Z,20.17
2022-10-28T11:44:31.469Z,20.33
2022-10-28T11:47:02.433Z,20.37
2022-10-28T11:49:40.800Z,20.43
2022-10-28T11:52:26.211Z,20.52
2022-10-28T11:55:14.635Z,20.61
2022-10-28T11:58:20.851Z,20.62
2022-10-28T12:01:04.168Z,20.56
2022-10-28T12:03:41.074Z,20.54
2022-10-28T12:06:15.864Z,20.62
2022-10-28T12:08:48.496Z,20.74
2022-10-28T12:11:29.491Z,20.77
2022-10-28T12:14:30.318Z,20.80
2022-10-28T12:16:58.637Z,20.86
2022-10-28T12:19:41.419Z,20.96
2022-10-28T12:22:22.251Z,20.84
2022-10-28T12:24:49.483Z,20.84
2022-10-28T12:27:33.091Z,20.76
2022-10-28T12:30:06.201Z,20.73
2022-10-28T12:32:35.420Z,20.65
2022-10-28T12:35:15.648Z,20.69
2022-10-28T12:37:48.687Z,20.81
2022-10-28T12:40:21.240Z,20.86
2022-10-28T12:42:57.975Z,20.97
2022-10-28T12:45:25.292Z,20.88
2022-10-28T12:48:04.446Z,20.92
2022-10-28T12:50:39.293Z,20.88
2022-10-28T12:53:24.345Z,20.80
2022-10-28T12:55:58.139Z,20.92
2022-10-28T12:58:38.671Z,20.82
2022-10-28T13:01:17.385Z,20.82
2022-10-28T13:03:45.099Z,20.70
2022-10-28T13:06:34.774Z,20.71
2022-10-28T13:09:33.275Z,20.71
2022-10-28T13:12:24.939Z,20.62
2022-10-28T13:17:41.613Z,20.52
2022-10-28T13:20:41.544Z,20.57
2022-10-28T13:23:30.132Z,20.62
2022-10-28T13:26:18.550Z,20.68
2022-10-28T13:28:47.854Z,20.54
2022-10-28T13:31:15.522Z,20.53
2022-10-28T13:33:55.069Z,20.56
2022-10-28T13:36:36.383Z,20.49
2022-10-28T13:39:06.265Z,20.42
2022-10-28T13:41:43.452Z,20.43
2022-10-28T13:44:24.527Z,20.48
2022-10-28T13:46:57.536Z,20.36
2022-10-28T13:49:34.775Z,20.15
2022-10-28T13:52:19.629Z,20.13
2022-10-28T13:54:46.087Z,20.06
2022-10-28T13:57:23.046Z,19.99
2022-10-28T13:59:57.593Z,19.93
2022-10-28T14:02:48.126Z,19.86
2022-10-28T14:05:17.171Z,19.73
2022-10-28T14:07:56.004Z,19.62
2022-10-28T14:10:25.823Z,19.52
2022-10-28T14:12:59.254Z,19.45
2022-10-28T14:15:28.658Z,19.36
2022-10-28T14:18:42.958Z,19.29
2022-10-28T14:21:10.110Z,19.17
2022-10-28T14:23:39.700Z,19.12
2022-10-28T14:26:06.484Z,18.99
2022-10-28T14:28:32.980Z,18.94
2022-10-28T14:31:11.765Z,18.91
2022-10-28T14:34:11.812Z,18.76
2022-10-28T14:36:53.159Z,18.68
2022-10-28T14:39:52.401Z,18.56
2022-10-28T14:42:34.140Z,18.50
2022-10-28T14:45:39.564Z,18.45
2022-10-28T14:48:29.082Z,18.40
2022-10-28T14:50:56.095Z,18.34
2022-10-28T14:53:29.380Z,18.34
2022-10-28T14:56:02.001Z,18.24
2022-10-28T14:58:31.707Z,18.14
2022-10-28T15:01:16.779Z,18.09
2022-10-28T15:03:48.872Z,18.01
2022-10-28T15:06:33.984Z,17.92
2022-10-28T15:09:07.312Z,17.81
2022-10-28T15:11:34.406Z,17.73
2022-10-28T15:14:24.714Z,17.63
2022-10-28T15:16:51.510Z,17.52
2022-10-28T15:19:24.437Z,17.43
2022-10-28T15:22:18.374Z,17.34
2022-10-28T15:24:58.271Z,17.24
2022-10-28T15:27:27.532Z,17.16
2022-10-28T15:29:57.856Z,17.04
2022-10-28T15:32:32.834Z,16.95
2022-10-28T15:35:00.201Z,16.84
2022-10-28T15:37:29.495Z,16.75
2022-10-28T15:40:19.774Z,16.70
2022-10-28T15:42:52.948Z,16.57
2022-10-28T15:45:24.792Z,16.50
2022-10-28T15:47:55.442Z,16.42
2022-10-28T15:50:34.439Z,16.37
2022-10-28T15:53:06.954Z,16.29
2022-10-28T15:58:33.435Z,16.10
2022-10-28T16:01:00.421Z,16.01
2022-10-28T16:03:40.826Z,15.96
2022-10-28T16:06:31.833Z,15.88
2022-10-28T16:09:01.199Z,15.79
2022-10-28T16:11:30.488Z,15.72
2022-10-28T16:13:58.357Z,15.66
2022-10-28T16:16:27.946Z,15.58
2022-10-28T16:19:12.950Z,15.52
2022-10-28T16:21:44.881Z,15.43
2022-10-28T16:24:11.484Z,15.40
2022-10-28T16:26:38.061Z,15.40
2022-10-28T16:29:16.758Z,15.34
2022-10-28T16:31:52.862Z,15.27
2022-10-28T16:34:20.602Z,15.20
2022-10-28T16:36:47.205Z,15.13
2022-10-28T16:39:14.190Z,15.12
2022-10-28T16:41:41.007Z,15.06
2022-10-28T16:44:18.072Z,15.05
2022-10-28T16:46:44.692Z,14.97
2022-10-28T16:49:11.249Z,14.96
2022-10-28T16:51:38.312Z,14.89
2022-10-28T16:54:04.905Z,14.86
2022-10-28T16:56:31.469Z,14.81
2022-10-28T16:58:58.061Z,14.78
2022-10-28T17:01:25.475Z,14.73
2022-10-28T17:03:52.146Z,14.72
2022-10-28T17:06:18.769Z,14.67
2022-10-28T17:14:03.706Z,14.67
2022-10-28T17:16:30.364Z,14.64
2022-10-28T17:18:56.978Z,14.64
2022-10-28T17:21:23.599Z,14.67
2022-10-28T17:23:50.513Z,14.62
2022-10-28T17:26:17.107Z,14.59
2022-10-28T17:28:43.765Z,14.56
2022-10-28T17:31:10.698Z,14.49
2022-10-28T17:33:37.338Z,14.44
2022-10-28T17:36:08.637Z,14.41
2022-10-28T17:38:35.564Z,14.37
2022-10-28T17:41:02.452Z,14.36
2022-10-28T17:43:29.222Z,14.36
2022-10-28T17:46:06.575Z,14.37
2022-10-28T17:48:33.750Z,14.31
2022-10-28T17:51:00.460Z,14.29
2022-10-28T17:53:27.166Z,14.29
2022-10-28T17:56:01.115Z,14.26
2022-10-28T17:58:27.755Z,14.27
2022-10-28T18:00:59.476Z,14.30
2022-10-28T18:03:27.028Z,14.29
2022-10-28T18:05:53.751Z,14.28
2022-10-28T18:08:23.149Z,14.26
2022-10-28T18:10:54.920Z,14.29
2022-10-28T18:13:29.987Z,14.26
2022-10-28T18:15:57.252Z,14.22
2022-10-28T18:18:26.971Z,14.19
2022-10-28T18:20:54.122Z,14.14
2022-10-28T18:23:21.911Z,14.09
2022-10-28T18:26:12.796Z,14.06
2022-10-28T18:28:41.541Z,14.04
2022-10-28T18:31:11.682Z,14.00
2022-10-28T18:33:38.627Z,13.97
2022-10-28T18:36:07.757Z,13.98
2022-10-28T18:38:34.357Z,13.93
2022-10-28T18:41:01.070Z,13.87
2022-10-28T18:43:27.946Z,13.84
2022-10-28T18:45:54.763Z,13.82
2022-10-28T18:48:21.350Z,13.78
2022-10-28T18:51:06.610Z,13.80
2022-10-28T18:53:38.439Z,13.86
2022-10-28T18:56:06.691Z,13.74
2022-10-28T18:58:33.323Z,13.67
2022-10-28T19:01:08.453Z,13.65
2022-10-28T19:03:35.941Z,13.66
2022-10-28T19:06:05.593Z,13.62
2022-10-28T19:08:33.365Z,13.59
2022-10-28T19:11:01.646Z,13.58
2022-10-28T19:13:28.778Z,13.52
2022-10-28T19:15:55.461Z,13.50
2022-10-28T19:18:22.341Z,13.51
2022-10-28T19:20:50.685Z,13.48
2022-10-28T19:23:17.994Z,13.47
2022-10-28T19:25:53.879Z,13.47
2022-10-28T19:28:20.464Z,13.45
2022-10-28T19:30:47.152Z,13.48
2022-10-28T19:33:13.892Z,13.46
2022-10-28T19:35:41.882Z,13.43
2022-10-28T19:38:08.475Z,13.39
2022-10-28T19:40:35.041Z,13.34
2022-10-28T19:43:01.601Z,13.38
2022-10-28T19:45:28.448Z,13.36
2022-10-28T19:47:55.224Z,13.31
2022-10-28T19:50:22.167Z,13.27
2022-10-28T19:52:48.742Z,13.25
2022-10-28T19:55:15.366Z,13.17
2022-10-28T19:57:42.041Z,13.13
2022-10-28T20:00:09.745Z,13.14
2022-10-28T20:02:36.747Z,13.07
2022-10-28T20:05:04.464Z,13.04
2022-10-28T20:07:32.097Z,12.99
2022-10-28T20:12:31.851Z,12.93
2022-10-28T20:14:58.883Z,12.96
2022-10-28T20:17:25.936Z,12.89
2022-10-28T20:19:53.212Z,12.86
2022-10-28T20:22:20.370Z,12.83
2022-10-28T20:24:47.509Z,12.81
2022-10-28T20:27:14.441Z,12.78
2022-10-28T20:29:41.252Z,12.76
2022-10-28T20:32:08.110Z,12.74
2022-10-28T20:34:34.935Z,12.69
2022-10-28T20:37:04.417Z,12.67
2022-10-28T20:39:31.258Z,12.67
2022-10-28T20:41:58.325Z,12.67
2022-10-28T20:44:25.163Z,12.66
2022-10-28T20:46:52.240Z,12.67
2022-10-28T20:49:19.236Z,12.63
2022-10-28T20:51:46.322Z,12.63
2022-10-28T20:54:13.298Z,12.61
2022-10-28T20:56:42.035Z,12.60
2022-10-28T20:59:09.161Z,12.60
2022-10-28T21:01:38.584Z,12.60
2022-10-28T21:04:07.633Z,12.60
2022-10-28T21:06:35.134Z,12.60
2022-10-28T21:09:01.999Z,12.60
2022-10-28T21:11:29.083Z,12.60
2022-10-28T21:13:57.755Z,12.62
2022-10-28T21:16:28.769Z,12.61
2022-10-28T21:18:57.897Z,12.61
2022-10-28T21:21:27.948Z,12.60
2022-10-28T21:23:54.569Z,12.63
2022-10-28T21:26:22.102Z,12.68
2022-10-28T21:28:53.765Z,12.72
2022-10-28T21:31:21.208Z,12.70
2022-10-28T21:36:17.051Z,12.72
2022-10-28T21:38:43.786Z,12.78
2022-10-28T21:41:18.896Z,12.84
2022-10-28T21:43:48.099Z,12.91
2022-10-28T21:46:15.620Z,12.94
2022-10-28T21:48:42.916Z,13.04
2022-10-28T21:51:14.592Z,13.09
2022-10-28T21:53:42.126Z,13.09
2022-10-28T21:56:17.434Z,13.14
2022-10-28T21:58:46.195Z,13.18
2022-10-28T22:01:23.814Z,13.27
2022-10-28T22:03:51.641Z,13.31
2022-10-28T22:06:18.411Z,13.37
2022-10-28T22:08:45.107Z,13.42
2022-10-28T22:11:14.071Z,13.49
2022-10-28T22:13:41.033Z,13.53
2022-10-28T22:16:11.320Z,13.57
2022-10-28T22:18:38.463Z,13.66
2022-10-28T22:21:25.389Z,13.66
2022-10-28T22:23:52.508Z,13.72
2022-10-28T22:26:21.581Z,13.80
2022-10-28T22:28:48.587Z,13.82
2022-10-28T22:31:19.086Z,13.84
2022-10-28T22:36:22.678Z,13.87
2022-10-28T22:38:50.088Z,13.97
2022-10-28T22:41:28.527Z,14.04
2022-10-28T22:43:59.689Z,14.13
2022-10-28T22:46:28.432Z,14.13
2022-10-28T22:48:55.066Z,14.22
2022-10-28T22:51:24.716Z,14.19
2022-10-28T22:53:51.337Z,14.17
2022-10-28T22:56:20.379Z,14.15
2022-10-28T22:58:48.199Z,14.19
2022-10-28T23:01:17.382Z,14.20
2022-10-28T23:03:46.018Z,14.22
2022-10-28T23:06:18.066Z,14.28
2022-10-28T23:08:44.994Z,14.26
2022-10-28T23:11:12.741Z,14.27
2022-10-28T23:13:39.826Z,14.22
2022-10-28T23:16:13.652Z,14.22
2022-10-28T23:18:40.613Z,14.20
2022-10-28T23:21:10.428Z,14.17
2022-10-28T23:23:37.228Z,14.15
2022-10-28T23:26:04.547Z,14.13
2022-10-28T23:28:31.226Z,14.08
2022-10-28T23:31:02.823Z,14.09
2022-10-28T23:33:32.857Z,14.00
2022-10-28T23:36:01.054Z,13.98
2022-10-28T23:38:27.680Z,13.95
2022-10-28T23:41:03.842Z,13.97
2022-10-28T23:43:31.372Z,13.92
2022-10-28T23:45:58.594Z,13.90
2022-10-28T23:48:25.893Z,13.83
2022-10-28T23:50:52.945Z,13.82
2022-10-28T23:53:23.425Z,13.74
2022-10-28T23:55:50.787Z,13.75
2022-10-28T23:58:18.798Z,13.70
